sensor_id;sensor_type;location;lat;lon;timestamp;temperature;humidity
20833;DHT22;56075;51.264;7.150;2024-03-07T00:00:31;6.10;99.90
20833;DHT22;56075;51.264;7.150;2024-03-07T00:03:02;6.10;99.90
20833;DHT22;56075;51.264;7.150;2024-03-07T00:05:34;5.90;99.90
20833;DHT22;56075;51.264;7.150;2024-03-07T00:08:05;5.80;99.90
20833;DHT22;56075;51.264;7.150;2024-03-07T00:10:37;5.80;99.90
20833;DHT22;56075;51.264;7.150;2024-03-07T00:13:08;5.70;99.90
20833;DHT22;56075;51.264;7.150;2024-03-07T00:15:39;6.00;99.90
20833;DHT22;56075;51.264;7.150;2024-03-07T00:18:11;5.70;99.90
20833;DHT22;56075;51.264;7.150;2024-03-07T00:20:42;5.60;99.90
20833;DHT22;56075;51.264;7.150;2024-03-07T00:23:14;5.60;99.90
20833;DHT22;56075;51.264;7.150;2024-03-07T00:25:47;5.60;99.90
20833;DHT22;56075;51.264;7.150;2024-03-07T00:30:51;5.70;99.90
20833;DHT22;56075;51.264;7.150;2024-03-07T00:35:53;5.60;99.90
20833;DHT22;56075;51.264;7.150;2024-03-07T00:38:25;5.50;99.90
20833;DHT22;56075;51.264;7.150;2024-03-07T00:40:56;5.50;99.90
20833;DHT22;56075;51.264;7.150;2024-03-07T00:43:27;5.50;99.90
20833;DHT22;56075;51.264;7.150;2024-03-07T00:45:58;5.50;99.90
20833;DHT22;56075;51.264;7.150;2024-03-07T00:53:32;5.40;99.90
20833;DHT22;56075;51.264;7.150;2024-03-07T00:56:03;5.50;99.90
20833;DHT22;56075;51.264;7.150;2024-03-07T00:58:36;5.50;99.90
20833;DHT22;56075;51.264;7.150;2024-03-07T01:01:07;5.50;99.90
20833;DHT22;56075;51.264;7.150;2024-03-07T01:03:38;5.50;99.90
20833;DHT22;56075;51.264;7.150;2024-03-07T01:06:09;5.50;99.90
20833;DHT22;56075;51.264;7.150;2024-03-07T01:08:41;5.50;99.90
20833;DHT22;56075;51.264;7.150;2024-03-07T01:11:12;5.30;99.90
20833;DHT22;56075;51.264;7.150;2024-03-07T01:13:43;5.70;99.90
20833;DHT22;56075;51.264;7.150;2024-03-07T01:16:14;5.40;99.90
20833;DHT22;56075;51.264;7.150;2024-03-07T01:21:17;5.50;99.90
20833;DHT22;56075;51.264;7.150;2024-03-07T01:23:48;5.30;99.90
20833;DHT22;56075;51.264;7.150;2024-03-07T01:26:19;5.30;99.90
20833;DHT22;56075;51.264;7.150;2024-03-07T01:31:23;5.40;99.90
20833;DHT22;56075;51.264;7.150;2024-03-07T01:33:54;5.40;99.90
20833;DHT22;56075;51.264;7.150;2024-03-07T01:36:25;5.40;99.90
20833;DHT22;56075;51.264;7.150;2024-03-07T01:38:56;5.40;99.90
20833;DHT22;56075;51.264;7.150;2024-03-07T01:41:27;5.20;99.90
20833;DHT22;56075;51.264;7.150;2024-03-07T01:43:58;5.50;99.90
20833;DHT22;56075;51.264;7.150;2024-03-07T01:46:30;5.20;99.90
20833;DHT22;56075;51.264;7.150;2024-03-07T01:51:34;5.50;99.90
20833;DHT22;56075;51.264;7.150;2024-03-07T01:54:08;5.50;99.90
20833;DHT22;56075;51.264;7.150;2024-03-07T01:59:12;5.30;99.90
20833;DHT22;56075;51.264;7.150;2024-03-07T02:04:17;5.30;99.90
20833;DHT22;56075;51.264;7.150;2024-03-07T02:09:20;5.30;99.90
20833;DHT22;56075;51.264;7.150;2024-03-07T02:14:22;5.20;99.90
20833;DHT22;56075;51.264;7.150;2024-03-07T02:16:53;5.20;99.90
20833;DHT22;56075;51.264;7.150;2024-03-07T02:19:27;5.30;99.90
20833;DHT22;56075;51.264;7.150;2024-03-07T02:21:58;5.20;99.90
20833;DHT22;56075;51.264;7.150;2024-03-07T02:24:30;5.40;99.90
20833;DHT22;56075;51.264;7.150;2024-03-07T02:27:03;5.10;99.90
20833;DHT22;56075;51.264;7.150;2024-03-07T02:29:34;5.20;99.90
20833;DHT22;56075;51.264;7.150;2024-03-07T02:32:06;5.20;99.90
20833;DHT22;56075;51.264;7.150;2024-03-07T02:34:37;5.20;99.90
20833;DHT22;56075;51.264;7.150;2024-03-07T02:37:08;5.10;99.90
20833;DHT22;56075;51.264;7.150;2024-03-07T02:39:40;5.20;99.90
20833;DHT22;56075;51.264;7.150;2024-03-07T02:42:11;5.10;99.90
20833;DHT22;56075;51.264;7.150;2024-03-07T02:47:14;4.90;99.90
20833;DHT22;56075;51.264;7.150;2024-03-07T02:59:51;4.80;99.90
20833;DHT22;56075;51.264;7.150;2024-03-07T03:02:22;4.70;99.90
20833;DHT22;56075;51.264;7.150;2024-03-07T03:04:53;4.80;99.90
20833;DHT22;56075;51.264;7.150;2024-03-07T03:07:25;4.80;99.90
20833;DHT22;56075;51.264;7.150;2024-03-07T03:09:56;4.80;99.90
20833;DHT22;56075;51.264;7.150;2024-03-07T03:12:27;4.70;99.90
20833;DHT22;56075;51.264;7.150;2024-03-07T03:17:30;4.70;99.90
20833;DHT22;56075;51.264;7.150;2024-03-07T03:20:01;4.70;99.90
20833;DHT22;56075;51.264;7.150;2024-03-07T03:22:34;4.70;99.90
20833;DHT22;56075;51.264;7.150;2024-03-07T03:25:05;4.60;99.90
20833;DHT22;56075;51.264;7.150;2024-03-07T03:27:38;4.60;99.90
20833;DHT22;56075;51.264;7.150;2024-03-07T03:30:10;4.50;99.90
20833;DHT22;56075;51.264;7.150;2024-03-07T03:32:50;4.50;99.90
20833;DHT22;56075;51.264;7.150;2024-03-07T03:35:21;4.60;99.90
20833;DHT22;56075;51.264;7.150;2024-03-07T03:37:52;4.50;99.90
20833;DHT22;56075;51.264;7.150;2024-03-07T03:45:26;4.60;99.90
20833;DHT22;56075;51.264;7.150;2024-03-07T03:50:29;4.60;99.90
20833;DHT22;56075;51.264;7.150;2024-03-07T03:53:00;4.40;99.90
20833;DHT22;56075;51.264;7.150;2024-03-07T03:58:05;4.50;99.90
20833;DHT22;56075;51.264;7.150;2024-03-07T05:26:37;4.40;99.90
20833;DHT22;56075;51.264;7.150;2024-03-07T05:31:42;4.30;99.90
20833;DHT22;56075;51.264;7.150;2024-03-07T05:34:20;4.20;99.90
20833;DHT22;56075;51.264;7.150;2024-03-07T05:39:22;4.30;99.90
20833;DHT22;56075;51.264;7.150;2024-03-07T05:44:28;4.20;99.90
20833;DHT22;56075;51.264;7.150;2024-03-07T05:46:59;4.20;99.90
20833;DHT22;56075;51.264;7.150;2024-03-07T05:52:02;4.20;99.90
20833;DHT22;56075;51.264;7.150;2024-03-07T05:57:05;4.10;99.90
20833;DHT22;56075;51.264;7.150;2024-03-07T06:02:09;4.00;99.90
20833;DHT22;56075;51.264;7.150;2024-03-07T06:09:46;3.80;99.90
20833;DHT22;56075;51.264;7.150;2024-03-07T06:12:19;3.90;99.90
20833;DHT22;56075;51.264;7.150;2024-03-07T06:17:21;3.80;99.90
20833;DHT22;56075;51.264;7.150;2024-03-07T06:19:54;4.10;99.90
20833;DHT22;56075;51.264;7.150;2024-03-07T06:24:56;3.80;99.90
20833;DHT22;56075;51.264;7.150;2024-03-07T06:27:35;3.90;99.90
20833;DHT22;56075;51.264;7.150;2024-03-07T06:30:09;3.70;99.90
20833;DHT22;56075;51.264;7.150;2024-03-07T06:32:40;3.80;99.90
20833;DHT22;56075;51.264;7.150;2024-03-07T06:40:14;3.80;99.90
20833;DHT22;56075;51.264;7.150;2024-03-07T06:42:51;3.70;99.90
20833;DHT22;56075;51.264;7.150;2024-03-07T06:45:23;3.50;99.90
20833;DHT22;56075;51.264;7.150;2024-03-07T06:47:55;3.80;99.90
20833;DHT22;56075;51.264;7.150;2024-03-07T07:28:25;3.30;99.90
20833;DHT22;56075;51.264;7.150;2024-03-07T07:30:56;3.70;99.90
20833;DHT22;56075;51.264;7.150;2024-03-07T07:33:27;3.50;99.90
20833;DHT22;56075;51.264;7.150;2024-03-07T07:35:59;3.50;99.90
20833;DHT22;56075;51.264;7.150;2024-03-07T07:38:31;3.20;99.90
20833;DHT22;56075;51.264;7.150;2024-03-07T07:43:34;3.50;99.90
20833;DHT22;56075;51.264;7.150;2024-03-07T07:48:36;3.80;99.90
20833;DHT22;56075;51.264;7.150;2024-03-07T07:51:07;3.80;99.90
20833;DHT22;56075;51.264;7.150;2024-03-07T07:53:38;3.80;99.90
20833;DHT22;56075;51.264;7.150;2024-03-07T07:56:09;3.80;99.90
20833;DHT22;56075;51.264;7.150;2024-03-07T07:58:40;3.90;99.90
20833;DHT22;56075;51.264;7.150;2024-03-07T08:01:12;3.60;99.90
20833;DHT22;56075;51.264;7.150;2024-03-07T08:03:44;3.90;99.90
20833;DHT22;56075;51.264;7.150;2024-03-07T08:08:48;4.00;99.90
20833;DHT22;56075;51.264;7.150;2024-03-07T08:13:50;4.10;99.90
20833;DHT22;56075;51.264;7.150;2024-03-07T08:16:22;4.60;99.90
20833;DHT22;56075;51.264;7.150;2024-03-07T08:18:55;4.20;99.90
20833;DHT22;56075;51.264;7.150;2024-03-07T08:21:26;4.50;99.90
20833;DHT22;56075;51.264;7.150;2024-03-07T08:26:29;4.30;99.90
20833;DHT22;56075;51.264;7.150;2024-03-07T08:29:00;4.70;99.90
20833;DHT22;56075;51.264;7.150;2024-03-07T08:31:31;4.90;99.90
20833;DHT22;56075;51.264;7.150;2024-03-07T08:34:02;4.50;99.90
20833;DHT22;56075;51.264;7.150;2024-03-07T08:39:07;4.80;99.90
20833;DHT22;56075;51.264;7.150;2024-03-07T08:41:41;4.90;99.90
20833;DHT22;56075;51.264;7.150;2024-03-07T08:44:15;4.90;99.90
20833;DHT22;56075;51.264;7.150;2024-03-07T08:46:46;5.20;99.90
20833;DHT22;56075;51.264;7.150;2024-03-07T08:49:17;5.30;99.90
20833;DHT22;56075;51.264;7.150;2024-03-07T08:51:49;5.40;99.90
20833;DHT22;56075;51.264;7.150;2024-03-07T08:54:20;5.50;99.90
20833;DHT22;56075;51.264;7.150;2024-03-07T08:59:22;5.80;99.90
20833;DHT22;56075;51.264;7.150;2024-03-07T09:01:54;5.70;99.90
20833;DHT22;56075;51.264;7.150;2024-03-07T09:04:25;6.10;99.90
20833;DHT22;56075;51.264;7.150;2024-03-07T09:06:56;5.80;99.90
20833;DHT22;56075;51.264;7.150;2024-03-07T09:09:27;6.50;99.90
20833;DHT22;56075;51.264;7.150;2024-03-07T09:11:58;6.40;99.90
20833;DHT22;56075;51.264;7.150;2024-03-07T09:14:31;6.80;99.90
20833;DHT22;56075;51.264;7.150;2024-03-07T09:17:03;7.00;99.90
20833;DHT22;56075;51.264;7.150;2024-03-07T09:19:35;7.00;99.90
20833;DHT22;56075;51.264;7.150;2024-03-07T09:22:06;7.30;99.90
20833;DHT22;56075;51.264;7.150;2024-03-07T09:24:39;7.40;99.90
20833;DHT22;56075;51.264;7.150;2024-03-07T09:27:10;7.50;99.90
20833;DHT22;56075;51.264;7.150;2024-03-07T09:29:41;7.60;99.90
20833;DHT22;56075;51.264;7.150;2024-03-07T09:32:12;7.40;99.90
20833;DHT22;56075;51.264;7.150;2024-03-07T09:34:43;9.60;99.90
20833;DHT22;56075;51.264;7.150;2024-03-07T09:37:14;9.20;99.90
20833;DHT22;56075;51.264;7.150;2024-03-07T09:39:45;8.60;99.90
20833;DHT22;56075;51.264;7.150;2024-03-07T09:42:17;8.10;99.90
20833;DHT22;56075;51.264;7.150;2024-03-07T09:44:49;9.60;99.90
20833;DHT22;56075;51.264;7.150;2024-03-07T09:47:21;8.30;99.90
20833;DHT22;56075;51.264;7.150;2024-03-07T09:49:53;9.30;99.90
20833;DHT22;56075;51.264;7.150;2024-03-07T09:52:25;9.40;99.90
20833;DHT22;56075;51.264;7.150;2024-03-07T09:54:57;8.40;99.90
20833;DHT22;56075;51.264;7.150;2024-03-07T09:57:31;8.50;99.90
20833;DHT22;56075;51.264;7.150;2024-03-07T10:00:06;8.40;99.90
20833;DHT22;56075;51.264;7.150;2024-03-07T10:02:43;8.80;99.90
20833;DHT22;56075;51.264;7.150;2024-03-07T10:05:15;8.60;99.90
20833;DHT22;56075;51.264;7.150;2024-03-07T10:07:50;9.80;99.90
20833;DHT22;56075;51.264;7.150;2024-03-07T10:10:23;8.70;99.90
20833;DHT22;56075;51.264;7.150;2024-03-07T10:12:54;9.60;99.90
20833;DHT22;56075;51.264;7.150;2024-03-07T10:15:29;9.00;99.90
20833;DHT22;56075;51.264;7.150;2024-03-07T10:18:01;9.00;99.90
20833;DHT22;56075;51.264;7.150;2024-03-07T10:20:32;9.10;99.90
20833;DHT22;56075;51.264;7.150;2024-03-07T10:23:03;9.00;99.90
20833;DHT22;56075;51.264;7.150;2024-03-07T10:25:34;9.30;99.90
20833;DHT22;56075;51.264;7.150;2024-03-07T10:28:09;9.30;99.90
20833;DHT22;56075;51.264;7.150;2024-03-07T10:30:42;9.40;99.90
20833;DHT22;56075;51.264;7.150;2024-03-07T10:33:18;10.20;99.90
20833;DHT22;56075;51.264;7.150;2024-03-07T10:35:50;10.80;99.90
20833;DHT22;56075;51.264;7.150;2024-03-07T10:38:22;9.30;99.90
20833;DHT22;56075;51.264;7.150;2024-03-07T10:40:55;9.30;99.90
20833;DHT22;56075;51.264;7.150;2024-03-07T10:43:27;9.40;99.90
20833;DHT22;56075;51.264;7.150;2024-03-07T10:46:05;9.20;99.90
20833;DHT22;56075;51.264;7.150;2024-03-07T10:48:39;9.00;99.90
20833;DHT22;56075;51.264;7.150;2024-03-07T10:51:20;10.00;99.90
20833;DHT22;56075;51.264;7.150;2024-03-07T10:57:54;9.20;99.90
20833;DHT22;56075;51.264;7.150;2024-03-07T11:00:27;9.10;99.90
20833;DHT22;56075;51.264;7.150;2024-03-07T11:03:10;9.90;99.90
20833;DHT22;56075;51.264;7.150;2024-03-07T11:05:42;11.00;99.90
20833;DHT22;56075;51.264;7.150;2024-03-07T11:08:15;9.10;99.90
20833;DHT22;56075;51.264;7.150;2024-03-07T11:10:47;9.10;99.90
20833;DHT22;56075;51.264;7.150;2024-03-07T11:13:19;9.00;99.90
20833;DHT22;56075;51.264;7.150;2024-03-07T11:15:51;9.00;99.90
20833;DHT22;56075;51.264;7.150;2024-03-07T11:18:22;9.10;99.90
20833;DHT22;56075;51.264;7.150;2024-03-07T11:20:55;9.10;99.90
20833;DHT22;56075;51.264;7.150;2024-03-07T11:23:30;9.20;99.90
20833;DHT22;56075;51.264;7.150;2024-03-07T11:26:10;9.10;99.90
20833;DHT22;56075;51.264;7.150;2024-03-07T11:28:42;9.30;99.90
20833;DHT22;56075;51.264;7.150;2024-03-07T11:31:26;9.50;99.90
20833;DHT22;56075;51.264;7.150;2024-03-07T11:34:14;9.60;99.90
20833;DHT22;56075;51.264;7.150;2024-03-07T11:36:46;9.70;99.90
20833;DHT22;56075;51.264;7.150;2024-03-07T11:39:42;9.40;99.90
20833;DHT22;56075;51.264;7.150;2024-03-07T11:42:23;9.70;99.90
20833;DHT22;56075;51.264;7.150;2024-03-07T11:44:57;11.40;99.90
20833;DHT22;56075;51.264;7.150;2024-03-07T11:47:38;9.70;99.90
20833;DHT22;56075;51.264;7.150;2024-03-07T11:50:09;9.60;99.90
20833;DHT22;56075;51.264;7.150;2024-03-07T11:52:42;9.50;99.90
20833;DHT22;56075;51.264;7.150;2024-03-07T11:55:15;9.90;99.90
20833;DHT22;56075;51.264;7.150;2024-03-07T11:57:48;10.20;99.90
20833;DHT22;56075;51.264;7.150;2024-03-07T12:00:20;10.60;99.90
20833;DHT22;56075;51.264;7.150;2024-03-07T12:02:54;10.50;99.90
20833;DHT22;56075;51.264;7.150;2024-03-07T12:05:25;11.40;99.90
20833;DHT22;56075;51.264;7.150;2024-03-07T12:07:57;10.40;99.90
20833;DHT22;56075;51.264;7.150;2024-03-07T12:10:29;11.10;99.90
20833;DHT22;56075;51.264;7.150;2024-03-07T12:13:00;10.50;99.90
20833;DHT22;56075;51.264;7.150;2024-03-07T12:15:32;10.30;99.90
20833;DHT22;56075;51.264;7.150;2024-03-07T12:18:06;10.30;99.90
20833;DHT22;56075;51.264;7.150;2024-03-07T12:20:41;10.20;99.90
20833;DHT22;56075;51.264;7.150;2024-03-07T12:23:13;10.20;99.90
20833;DHT22;56075;51.264;7.150;2024-03-07T12:25:45;10.00;99.90
20833;DHT22;56075;51.264;7.150;2024-03-07T12:28:21;10.00;99.90
20833;DHT22;56075;51.264;7.150;2024-03-07T12:30:55;10.20;99.90
20833;DHT22;56075;51.264;7.150;2024-03-07T12:33:28;10.00;99.90
20833;DHT22;56075;51.264;7.150;2024-03-07T12:36:02;10.30;99.90
20833;DHT22;56075;51.264;7.150;2024-03-07T12:38:37;10.40;99.90
20833;DHT22;56075;51.264;7.150;2024-03-07T12:41:10;11.00;99.90
20833;DHT22;56075;51.264;7.150;2024-03-07T12:43:45;11.50;99.90
20833;DHT22;56075;51.264;7.150;2024-03-07T12:46:19;10.80;99.90
20833;DHT22;56075;51.264;7.150;2024-03-07T12:48:50;10.90;99.90
20833;DHT22;56075;51.264;7.150;2024-03-07T12:51:21;12.00;99.90
20833;DHT22;56075;51.264;7.150;2024-03-07T12:53:56;12.50;99.90
20833;DHT22;56075;51.264;7.150;2024-03-07T12:56:27;11.30;99.90
20833;DHT22;56075;51.264;7.150;2024-03-07T12:58:58;9.70;99.90
20833;DHT22;56075;51.264;7.150;2024-03-07T13:01:31;10.50;99.90
20833;DHT22;56075;51.264;7.150;2024-03-07T13:04:04;10.30;99.90
20833;DHT22;56075;51.264;7.150;2024-03-07T13:06:35;10.40;99.90
20833;DHT22;56075;51.264;7.150;2024-03-07T13:09:06;11.10;99.90
20833;DHT22;56075;51.264;7.150;2024-03-07T13:11:41;11.90;99.90
20833;DHT22;56075;51.264;7.150;2024-03-07T13:14:15;10.60;99.90
20833;DHT22;56075;51.264;7.150;2024-03-07T13:16:46;11.30;99.90
20833;DHT22;56075;51.264;7.150;2024-03-07T13:19:17;10.80;99.90
20833;DHT22;56075;51.264;7.150;2024-03-07T13:21:51;12.10;99.90
20833;DHT22;56075;51.264;7.150;2024-03-07T13:24:27;11.50;99.90
20833;DHT22;56075;51.264;7.150;2024-03-07T13:26:59;11.10;99.90
20833;DHT22;56075;51.264;7.150;2024-03-07T13:29:30;11.20;99.90
20833;DHT22;56075;51.264;7.150;2024-03-07T13:32:01;12.50;99.90
20833;DHT22;56075;51.264;7.150;2024-03-07T13:34:32;11.60;99.90
20833;DHT22;56075;51.264;7.150;2024-03-07T13:37:03;12.00;99.90
20833;DHT22;56075;51.264;7.150;2024-03-07T13:39:35;11.60;99.90
20833;DHT22;56075;51.264;7.150;2024-03-07T13:42:06;12.10;99.90
20833;DHT22;56075;51.264;7.150;2024-03-07T13:44:37;11.50;99.90
20833;DHT22;56075;51.264;7.150;2024-03-07T13:47:10;11.50;99.90
20833;DHT22;56075;51.264;7.150;2024-03-07T13:49:41;11.60;99.90
20833;DHT22;56075;51.264;7.150;2024-03-07T13:52:13;11.70;99.90
20833;DHT22;56075;51.264;7.150;2024-03-07T13:54:49;11.60;99.90
20833;DHT22;56075;51.264;7.150;2024-03-07T13:57:36;12.80;99.90
20833;DHT22;56075;51.264;7.150;2024-03-07T14:03:51;11.50;99.90
20833;DHT22;56075;51.264;7.150;2024-03-07T14:12:57;11.20;99.90
20833;DHT22;56075;51.264;7.150;2024-03-07T14:24:45;11.20;99.90
20833;DHT22;56075;51.264;7.150;2024-03-07T14:27:34;11.00;99.90
20833;DHT22;56075;51.264;7.150;2024-03-07T14:30:39;10.80;99.90
20833;DHT22;56075;51.264;7.150;2024-03-07T14:33:14;10.60;99.90
20833;DHT22;56075;51.264;7.150;2024-03-07T14:36:06;11.50;99.90
20833;DHT22;56075;51.264;7.150;2024-03-07T14:38:50;10.50;99.90
20833;DHT22;56075;51.264;7.150;2024-03-07T14:44:11;10.40;99.90
20833;DHT22;56075;51.264;7.150;2024-03-07T14:46:44;10.30;99.90
20833;DHT22;56075;51.264;7.150;2024-03-07T14:49:17;10.40;99.90
20833;DHT22;56075;51.264;7.150;2024-03-07T14:51:49;10.50;99.90
20833;DHT22;56075;51.264;7.150;2024-03-07T14:54:24;10.30;99.90
20833;DHT22;56075;51.264;7.150;2024-03-07T14:56:56;11.00;99.90
20833;DHT22;56075;51.264;7.150;2024-03-07T14:59:27;10.40;99.90
20833;DHT22;56075;51.264;7.150;2024-03-07T15:01:59;10.70;99.90
20833;DHT22;56075;51.264;7.150;2024-03-07T15:04:33;10.60;99.90
20833;DHT22;56075;51.264;7.150;2024-03-07T15:07:04;10.70;99.90
20833;DHT22;56075;51.264;7.150;2024-03-07T15:09:36;11.30;99.90
20833;DHT22;56075;51.264;7.150;2024-03-07T15:12:07;10.60;99.90
20833;DHT22;56075;51.264;7.150;2024-03-07T15:14:40;10.90;99.90
20833;DHT22;56075;51.264;7.150;2024-03-07T15:17:11;10.90;99.90
20833;DHT22;56075;51.264;7.150;2024-03-07T15:19:42;10.80;99.90
20833;DHT22;56075;51.264;7.150;2024-03-07T15:22:13;11.10;99.90
20833;DHT22;56075;51.264;7.150;2024-03-07T15:24:47;10.80;99.90
20833;DHT22;56075;51.264;7.150;2024-03-07T15:27:19;11.70;99.90
20833;DHT22;56075;51.264;7.150;2024-03-07T15:29:53;12.10;99.90
20833;DHT22;56075;51.264;7.150;2024-03-07T15:32:25;10.80;99.90
20833;DHT22;56075;51.264;7.150;2024-03-07T15:34:57;12.30;99.90
20833;DHT22;56075;51.264;7.150;2024-03-07T15:37:28;12.60;99.90
20833;DHT22;56075;51.264;7.150;2024-03-07T15:40:05;10.80;99.90
20833;DHT22;56075;51.264;7.150;2024-03-07T15:42:46;12.60;99.90
20833;DHT22;56075;51.264;7.150;2024-03-07T15:45:23;10.60;99.90
20833;DHT22;56075;51.264;7.150;2024-03-07T15:47:56;10.20;99.90
20833;DHT22;56075;51.264;7.150;2024-03-07T15:50:29;10.30;99.90
20833;DHT22;56075;51.264;7.150;2024-03-07T15:53:00;10.30;99.90
20833;DHT22;56075;51.264;7.150;2024-03-07T15:55:32;10.60;99.90
20833;DHT22;56075;51.264;7.150;2024-03-07T15:58:05;10.20;99.90
20833;DHT22;56075;51.264;7.150;2024-03-07T16:00:37;10.10;99.90
20833;DHT22;56075;51.264;7.150;2024-03-07T16:03:09;10.00;99.90
20833;DHT22;56075;51.264;7.150;2024-03-07T16:05:43;10.10;99.90
20833;DHT22;56075;51.264;7.150;2024-03-07T16:08:15;11.10;99.90
20833;DHT22;56075;51.264;7.150;2024-03-07T16:10:51;10.10;99.90
20833;DHT22;56075;51.264;7.150;2024-03-07T16:13:22;10.10;99.90
20833;DHT22;56075;51.264;7.150;2024-03-07T16:15:55;10.00;99.90
20833;DHT22;56075;51.264;7.150;2024-03-07T16:18:26;10.10;99.90
20833;DHT22;56075;51.264;7.150;2024-03-07T16:20:57;10.10;99.90
20833;DHT22;56075;51.264;7.150;2024-03-07T16:23:28;10.10;99.90
20833;DHT22;56075;51.264;7.150;2024-03-07T16:26:01;11.00;99.90
20833;DHT22;56075;51.264;7.150;2024-03-07T16:28:35;11.00;99.90
20833;DHT22;56075;51.264;7.150;2024-03-07T16:31:06;10.10;99.90
20833;DHT22;56075;51.264;7.150;2024-03-07T16:33:37;10.10;99.90
20833;DHT22;56075;51.264;7.150;2024-03-07T16:36:08;11.70;99.90
20833;DHT22;56075;51.264;7.150;2024-03-07T16:38:39;10.00;99.90
20833;DHT22;56075;51.264;7.150;2024-03-07T16:41:10;10.10;99.90
20833;DHT22;56075;51.264;7.150;2024-03-07T16:43:42;10.00;99.90
20833;DHT22;56075;51.264;7.150;2024-03-07T16:46:13;10.50;99.90
20833;DHT22;56075;51.264;7.150;2024-03-07T16:48:45;10.20;99.90
20833;DHT22;56075;51.264;7.150;2024-03-07T16:51:16;10.30;99.90
20833;DHT22;56075;51.264;7.150;2024-03-07T16:53:47;10.20;99.90
20833;DHT22;56075;51.264;7.150;2024-03-07T16:56:18;10.20;99.90
20833;DHT22;56075;51.264;7.150;2024-03-07T16:58:49;10.10;99.90
20833;DHT22;56075;51.264;7.150;2024-03-07T17:01:21;10.00;99.90
20833;DHT22;56075;51.264;7.150;2024-03-07T17:03:52;9.90;99.90
20833;DHT22;56075;51.264;7.150;2024-03-07T17:06:23;9.70;99.90
20833;DHT22;56075;51.264;7.150;2024-03-07T17:08:55;10.10;99.90
20833;DHT22;56075;51.264;7.150;2024-03-07T17:11:26;10.50;99.90
20833;DHT22;56075;51.264;7.150;2024-03-07T17:13:57;9.60;99.90
20833;DHT22;56075;51.264;7.150;2024-03-07T17:16:28;9.40;99.90
20833;DHT22;56075;51.264;7.150;2024-03-07T17:19:00;9.40;99.90
20833;DHT22;56075;51.264;7.150;2024-03-07T17:21:31;9.40;99.90
20833;DHT22;56075;51.264;7.150;2024-03-07T17:24:02;9.10;99.90
20833;DHT22;56075;51.264;7.150;2024-03-07T17:26:33;9.20;99.90
20833;DHT22;56075;51.264;7.150;2024-03-07T17:29:04;10.90;99.90
20833;DHT22;56075;51.264;7.150;2024-03-07T17:31:37;9.00;99.90
20833;DHT22;56075;51.264;7.150;2024-03-07T17:34:08;9.80;99.90
20833;DHT22;56075;51.264;7.150;2024-03-07T17:36:39;8.80;99.90
20833;DHT22;56075;51.264;7.150;2024-03-07T17:39:10;8.90;99.90
20833;DHT22;56075;51.264;7.150;2024-03-07T17:41:44;8.80;99.90
20833;DHT22;56075;51.264;7.150;2024-03-07T17:44:19;8.60;99.90
20833;DHT22;56075;51.264;7.150;2024-03-07T17:46:50;8.50;99.90
20833;DHT22;56075;51.264;7.150;2024-03-07T17:49:21;8.40;99.90
20833;DHT22;56075;51.264;7.150;2024-03-07T17:51:55;9.40;99.90
20833;DHT22;56075;51.264;7.150;2024-03-07T17:54:26;8.20;99.90
20833;DHT22;56075;51.264;7.150;2024-03-07T17:57:02;8.20;99.90
20833;DHT22;56075;51.264;7.150;2024-03-07T17:59:33;8.10;99.90
20833;DHT22;56075;51.264;7.150;2024-03-07T18:02:04;8.00;99.90
20833;DHT22;56075;51.264;7.150;2024-03-07T18:04:35;8.00;99.90
20833;DHT22;56075;51.264;7.150;2024-03-07T18:07:06;8.00;99.90
20833;DHT22;56075;51.264;7.150;2024-03-07T18:09:40;7.90;99.90
20833;DHT22;56075;51.264;7.150;2024-03-07T18:12:12;8.00;99.90
20833;DHT22;56075;51.264;7.150;2024-03-07T18:14:45;8.00;99.90
20833;DHT22;56075;51.264;7.150;2024-03-07T18:17:21;7.80;99.90
20833;DHT22;56075;51.264;7.150;2024-03-07T18:19:53;7.70;99.90
20833;DHT22;56075;51.264;7.150;2024-03-07T18:22:26;7.70;99.90
20833;DHT22;56075;51.264;7.150;2024-03-07T18:24:57;7.60;99.90
20833;DHT22;56075;51.264;7.150;2024-03-07T18:27:28;7.70;99.90
20833;DHT22;56075;51.264;7.150;2024-03-07T18:30:00;7.50;99.90
20833;DHT22;56075;51.264;7.150;2024-03-07T18:32:41;7.50;99.90
20833;DHT22;56075;51.264;7.150;2024-03-07T18:35:13;7.30;99.90
20833;DHT22;56075;51.264;7.150;2024-03-07T18:37:45;7.30;99.90
20833;DHT22;56075;51.264;7.150;2024-03-07T18:40:18;7.30;99.90
20833;DHT22;56075;51.264;7.150;2024-03-07T18:42:54;7.20;99.90
20833;DHT22;56075;51.264;7.150;2024-03-07T18:45:25;7.30;99.90
20833;DHT22;56075;51.264;7.150;2024-03-07T18:50:28;7.10;99.90
20833;DHT22;56075;51.264;7.150;2024-03-07T18:52:59;7.10;99.90
20833;DHT22;56075;51.264;7.150;2024-03-07T18:55:30;7.00;99.90
20833;DHT22;56075;51.264;7.150;2024-03-07T18:58:02;6.90;99.90
20833;DHT22;56075;51.264;7.150;2024-03-07T19:00:34;6.80;99.90
20833;DHT22;56075;51.264;7.150;2024-03-07T19:03:09;6.80;99.90
20833;DHT22;56075;51.264;7.150;2024-03-07T19:05:44;6.80;99.90
20833;DHT22;56075;51.264;7.150;2024-03-07T19:08:16;6.70;99.90
20833;DHT22;56075;51.264;7.150;2024-03-07T19:10:53;6.70;99.90
20833;DHT22;56075;51.264;7.150;2024-03-07T19:13:28;6.80;99.90
20833;DHT22;56075;51.264;7.150;2024-03-07T19:16:08;6.80;99.90
20833;DHT22;56075;51.264;7.150;2024-03-07T19:18:39;6.70;99.90
20833;DHT22;56075;51.264;7.150;2024-03-07T19:21:11;6.70;99.90
20833;DHT22;56075;51.264;7.150;2024-03-07T19:23:42;6.50;99.90
20833;DHT22;56075;51.264;7.150;2024-03-07T19:26:15;6.40;99.90
20833;DHT22;56075;51.264;7.150;2024-03-07T19:28:47;6.30;99.90
20833;DHT22;56075;51.264;7.150;2024-03-07T19:31:18;6.40;99.90
20833;DHT22;56075;51.264;7.150;2024-03-07T19:33:49;6.30;99.90
20833;DHT22;56075;51.264;7.150;2024-03-07T19:36:22;6.30;99.90
20833;DHT22;56075;51.264;7.150;2024-03-07T19:38:55;6.20;99.90
20833;DHT22;56075;51.264;7.150;2024-03-07T19:41:42;6.20;99.90
20833;DHT22;56075;51.264;7.150;2024-03-07T19:44:18;6.10;99.90
20833;DHT22;56075;51.264;7.150;2024-03-07T19:49:20;6.00;99.90
20833;DHT22;56075;51.264;7.150;2024-03-07T19:51:51;6.00;99.90
20833;DHT22;56075;51.264;7.150;2024-03-07T19:54:22;6.10;99.90
20833;DHT22;56075;51.264;7.150;2024-03-07T19:56:55;5.90;99.90
20833;DHT22;56075;51.264;7.150;2024-03-07T20:02:06;6.00;99.90
20833;DHT22;56075;51.264;7.150;2024-03-07T20:04:37;5.40;99.90
20833;DHT22;56075;51.264;7.150;2024-03-07T20:07:08;5.90;99.90
20833;DHT22;56075;51.264;7.150;2024-03-07T20:09:41;5.70;99.90
20833;DHT22;56075;51.264;7.150;2024-03-07T20:14:47;5.50;99.90
20833;DHT22;56075;51.264;7.150;2024-03-07T20:17:19;5.60;99.90
20833;DHT22;56075;51.264;7.150;2024-03-07T20:19:50;5.30;99.90
20833;DHT22;56075;51.264;7.150;2024-03-07T20:22:21;5.60;99.90
20833;DHT22;56075;51.264;7.150;2024-03-07T20:24:54;5.50;99.90
20833;DHT22;56075;51.264;7.150;2024-03-07T20:27:25;5.70;99.90
20833;DHT22;56075;51.264;7.150;2024-03-07T20:29:57;5.70;99.90
20833;DHT22;56075;51.264;7.150;2024-03-07T20:32:28;5.50;99.90
20833;DHT22;56075;51.264;7.150;2024-03-07T20:35:00;5.30;99.90
20833;DHT22;56075;51.264;7.150;2024-03-07T20:37:32;5.50;99.90